首页
METAR-TAF:

METAR-TAF

机场 :

都柏林机场

都柏林, 爱尔兰

纬度: 53-26N, 经度: 006-15W, 海拔: 68米

当前天气观测

该预报发布于6分钟前的23:30 UTC
风速5节,风向南转西南
温度 5°C
湿度 93%
气压 1006 hPa
能见度10公里或以上
少量云层高于3000英尺
散云层高于25000英尺

METAR: EIDW 132330Z 21005KT 9999 FEW030 SCT250 05/04 Q1006 NOSIG

时间: 00:36 (23:36 UTC)

预报

该预报发布于36分钟前的23:00 UTC
预报有效从14日的 00点(UTC)到 14日的 24点(UTC)
风速3节,风向多变
能见度10公里或以上
少量云层高于1800英尺
散云层高于3000英尺
几率 30% :
短暂存在
从 14日的 00点(UTC)到 14日的 06点(UTC)
能見度: 4000
轻雾
成为
从 14日的 04点(UTC)到 14日的 06点(UTC)
风速8节,风向
成为
从 14日的 06点(UTC)到 14日的 08点(UTC)
风速15节,风向东南
短暂存在
从 14日的 06点(UTC)到 14日的 24点(UTC)
多云层高于1300英尺
小雨
几率 30% :
短暂存在
从 14日的 06点(UTC)到 14日的 18点(UTC)
能見度: 4000
多云层高于800英尺
散云层高于2000英尺, 积雨云.
阵雨
短暂存在
从 14日的 08点(UTC)到 14日的 15点(UTC)
风速16节,风向南转南东,有时为27节阵风
成为
从 14日的 20点(UTC)到 14日的 22点(UTC)
风速10节,风向东南

TAF: EIDW 132300Z 1400/1424 VRB03KT 9999 FEW018 SCT030 PROB30 TEMPO 1400/1406 4000 BR BECMG 1404/1406 08008KT BECMG 1406/1408 13015KT TEMPO 1406/1424 -RA BKN013 PROB30 TEMPO 1406/1418 4000 SHRA BKN008 SCT020CB TEMPO 1408/1415 15016G27KT BECMG 1420/1422 13010KT

超过4000个机场的气象观测和天气预报(METAR&TAF报告)。

可查询的气象台以黄色和红色小点在地图上表示。

将鼠标移到小点上方,可查看气象台名称。

然后点击查看天气观测和预报。

如需切换地图:点击带黑十字的绿色按钮放大地图;点击带横线的绿色按钮缩小地图;或者点击绿色箭头查看邻近地区的地图。


METAR-TAF: